Time;durP1;ratioP1;P1;durP2;ratioP2;P2;SDS_P1;SDS_P2;PMS_P1;PMS_P2;Temp;Humidity;BMP_temperature;BMP_pressure;BME280_temperature;BME280_humidity;BME280_pressure;Samples;Min_cycle;Max_cycle;Signal;HPM_P1;HPM_P2
2023/04/02 00:02:22;;;;;;;1.30;0.80;;;;;;;;;;5033723;28;20054;-57
2023/04/02 00:05:19;;;;;;;1.30;0.80;;;;;;;;;;5012106;28;20034;-58
2023/04/02 00:07:56;;;;;;;1.08;0.60;;;;;;;;;;5010077;28;20483;-58
2023/04/02 00:10:46;;;;;;;1.25;0.70;;;;;;;;;;5008564;28;20061;-57
2023/04/02 00:13:15;;;;;;;0.60;0.60;;;;;;;;;;5008702;28;20037;-58
2023/04/02 00:15:45;;;;;;;0.80;0.80;;;;;;;;;;5009919;28;20045;-57
2023/04/02 00:18:17;;;;;;;0.55;0.55;;;;;;;;;;5011013;28;20045;-57
2023/04/02 00:20:49;;;;;;;1.83;0.85;;;;;;;;;;5008581;28;20034;-57
2023/04/02 00:23:16;;;;;;;1.30;0.70;;;;;;;;;;5010658;28;20407;-56
2023/04/02 00:25:44;;;;;;;1.60;0.75;;;;;;;;;;5009717;28;20034;-58
2023/04/02 00:28:18;;;;;;;0.50;0.50;;;;;;;;;;5011041;28;20046;-58
2023/04/02 00:30:48;;;;;;;1.05;0.70;;;;;;;;;;5008421;28;20037;-57
2023/04/02 00:33:17;;;;;;;0.73;0.70;;;;;;;;;;5009084;28;20029;-57
2023/04/02 00:35:43;;;;;;;1.63;0.70;;;;;;;;;;5009796;28;20054;-58
2023/04/02 00:38:20;;;;;;;1.58;0.70;;;;;;;;;;5007311;28;20496;-58
2023/04/02 00:40:46;;;;;;;0.68;0.60;;;;;;;;;;5011559;28;20046;-58
2023/04/02 00:43:17;;;;;;;1.38;0.70;;;;;;;;;;5007190;28;20040;-58
2023/04/02 00:45:49;;;;;;;0.82;0.82;;;;;;;;;;5010024;28;20033;-58
2023/04/02 00:48:30;;;;;;;3.25;0.60;;;;;;;;;;5012262;28;20037;-58
2023/04/02 00:51:28;;;;;;;1.55;0.77;;;;;;;;;;5011421;28;20736;-58
2023/04/02 00:53:59;;;;;;;1.23;0.80;;;;;;;;;;5011012;28;20496;-57
2023/04/02 00:56:31;;;;;;;1.05;0.77;;;;;;;;;;5010198;28;20040;-57
2023/04/02 00:58:57;;;;;;;0.60;0.52;;;;;;;;;;4990611;28;20053;-58
2023/04/02 01:01:28;;;;;;;1.77;0.80;;;;;;;;;;5008010;28;20050;-57
2023/04/02 01:03:59;;;;;;;0.80;0.80;;;;;;;;;;5039368;28;20109;-57
2023/04/02 01:06:30;;;;;;;0.77;0.70;;;;;;;;;;5012230;28;20045;-57
2023/04/02 01:09:11;;;;;;;1.85;1.00;;;;;;;;;;5011301;28;20034;-57
2023/04/02 01:12:09;;;;;;;2.47;0.90;;;;;;;;;;5007483;28;20086;-57
2023/04/02 01:14:45;;;;;;;1.20;0.90;;;;;;;;;;5008957;28;20038;-58
2023/04/02 01:17:34;;;;;;;0.90;0.90;;;;;;;;;;5009723;28;20041;-58
2023/04/02 01:20:36;;;;;;;0.80;0.70;;;;;;;;;;5007521;28;20046;-58
2023/04/02 01:23:17;;;;;;;1.20;1.10;;;;;;;;;;5007280;28;20571;-58
2023/04/02 01:26:15;;;;;;;2.05;1.10;;;;;;;;;;5006634;28;20049;-58
2023/04/02 01:28:50;;;;;;;1.67;0.90;;;;;;;;;;5030446;28;20048;-58
2023/04/02 01:31:16;;;;;;;2.25;1.00;;;;;;;;;;5036903;28;20041;-57
2023/04/02 01:33:43;;;;;;;1.58;0.77;;;;;;;;;;5009154;28;20420;-58
2023/04/02 01:36:35;;;;;;;1.10;0.98;;;;;;;;;;5011290;28;20053;-57
2023/04/02 01:39:14;;;;;;;2.17;1.10;;;;;;;;;;5009814;28;20515;-58
2023/04/02 01:42:08;;;;;;;1.57;0.90;;;;;;;;;;5008639;28;20117;-57
2023/04/02 01:44:46;;;;;;;5.13;2.22;;;;;;;;;;5006789;28;20288;-56
2023/04/02 01:47:15;;;;;;;3.17;1.05;;;;;;;;;;5009034;28;20038;-57
2023/04/02 01:49:42;;;;;;;1.17;1.08;;;;;;;;;;5008485;28;20046;-57
2023/04/02 01:52:16;;;;;;;1.98;1.00;;;;;;;;;;5010330;28;20049;-57
2023/04/02 01:54:46;;;;;;;0.82;0.82;;;;;;;;;;5008112;28;20045;-58
2023/04/02 01:57:12;;;;;;;0.73;0.70;;;;;;;;;;5003090;28;20030;-57
2023/04/02 01:59:39;;;;;;;1.35;0.93;;;;;;;;;;5008818;28;20048;-57
2023/04/02 02:02:12;;;;;;;0.77;0.70;;;;;;;;;;4990870;28;20030;-58
2023/04/02 02:04:40;;;;;;;1.65;0.93;;;;;;;;;;5009349;28;20045;-58
2023/04/02 02:07:15;;;;;;;1.17;0.80;;;;;;;;;;5008408;28;20046;-57
2023/04/02 02:09:44;;;;;;;0.93;0.80;;;;;;;;;;5006201;28;20045;-58
2023/04/02 02:12:13;;;;;;;2.03;0.90;;;;;;;;;;5005959;28;20632;-58
2023/04/02 02:14:45;;;;;;;1.85;0.90;;;;;;;;;;5008679;28;20407;-58
2023/04/02 02:17:15;;;;;;;1.30;0.80;;;;;;;;;;5009651;28;20594;-57
2023/04/02 02:19:53;;;;;;;1.92;1.30;;;;;;;;;;5005180;28;20057;-57
2023/04/02 02:22:33;;;;;;;1.40;0.90;;;;;;;;;;5008451;28;20029;-58
2023/04/02 02:25:04;;;;;;;2.15;1.05;;;;;;;;;;5007079;28;20033;-58
2023/04/02 02:27:46;;;;;;;2.22;0.95;;;;;;;;;;5009383;28;20056;-58
2023/04/02 02:30:22;;;;;;;1.10;1.00;;;;;;;;;;5005391;28;20048;-57
2023/04/02 02:32:51;;;;;;;2.95;1.05;;;;;;;;;;5008051;28;20042;-57
2023/04/02 02:35:20;;;;;;;3.22;0.90;;;;;;;;;;5009094;28;20038;-58
2023/04/02 02:38:20;;;;;;;1.42;0.90;;;;;;;;;;5006470;28;20060;-57
2023/04/02 02:40:51;;;;;;;1.20;1.10;;;;;;;;;;5009586;28;20040;-58
2023/04/02 02:43:18;;;;;;;1.40;1.00;;;;;;;;;;4990334;28;20045;-58
2023/04/02 02:45:46;;;;;;;1.40;0.98;;;;;;;;;;5008498;28;20033;-57
2023/04/02 02:48:16;;;;;;;1.40;1.00;;;;;;;;;;5009160;28;20476;-59
2023/04/02 02:50:43;;;;;;;0.90;0.90;;;;;;;;;;5007346;28;20388;-56
2023/04/02 02:53:22;;;;;;;3.75;1.00;;;;;;;;;;5008159;28;20034;-57
2023/04/02 02:55:54;;;;;;;1.15;0.88;;;;;;;;;;5024948;28;20046;-58
2023/04/02 02:58:28;;;;;;;1.13;0.75;;;;;;;;;;5004180;28;20490;-57
2023/04/02 03:01:03;;;;;;;0.93;0.80;;;;;;;;;;5003585;28;20045;-57
2023/04/02 03:03:32;;;;;;;1.15;0.70;;;;;;;;;;5008587;28;20046;-57
2023/04/02 03:06:07;;;;;;;2.45;0.70;;;;;;;;;;5005877;28;20029;-57
2023/04/02 03:08:40;;;;;;;1.35;0.90;;;;;;;;;;5008711;28;20053;-57
2023/04/02 03:11:22;;;;;;;1.02;0.70;;;;;;;;;;5006201;28;20500;-58
2023/04/02 03:13:50;;;;;;;2.42;0.90;;;;;;;;;;5005886;28;20053;-59
2023/04/02 03:16:26;;;;;;;3.90;0.80;;;;;;;;;;5008270;28;20480;-57
2023/04/02 03:19:01;;;;;;;1.75;0.93;;;;;;;;;;5034045;28;20038;-58
2023/04/02 03:21:53;;;;;;;1.25;0.82;;;;;;;;;;5002943;28;20595;-58
2023/04/02 03:24:55;;;;;;;0.82;0.82;;;;;;;;;;5008193;28;20042;-58
2023/04/02 03:27:30;;;;;;;1.85;0.80;;;;;;;;;;4997148;28;20411;-56
2023/04/02 03:30:17;;;;;;;1.50;0.93;;;;;;;;;;5007902;28;20519;-58
2023/04/02 03:32:47;;;;;;;1.48;0.90;;;;;;;;;;5030155;28;20412;-56
2023/04/02 03:35:25;;;;;;;1.50;0.90;;;;;;;;;;5008737;28;20046;-58
2023/04/02 03:38:00;;;;;;;1.10;1.00;;;;;;;;;;5009636;28;20045;-57
2023/04/02 03:40:36;;;;;;;1.42;0.90;;;;;;;;;;5006889;28;20057;-56
2023/04/02 03:43:13;;;;;;;2.75;1.00;;;;;;;;;;5003708;28;20042;-59
2023/04/02 03:45:47;;;;;;;2.38;0.90;;;;;;;;;;5008411;28;20033;-58
2023/04/02 03:48:32;;;;;;;1.02;0.85;;;;;;;;;;5006539;28;20056;-58
2023/04/02 03:51:05;;;;;;;2.17;1.10;;;;;;;;;;5006630;28;20040;-58
2023/04/02 03:53:32;;;;;;;2.58;1.02;;;;;;;;;;5005655;28;20030;-58
2023/04/02 03:56:01;;;;;;;1.77;1.00;;;;;;;;;;5006133;28;20045;-57
2023/04/02 03:58:33;;;;;;;1.50;1.00;;;;;;;;;;5009096;28;20040;-57
2023/04/02 04:01:28;;;;;;;2.50;0.98;;;;;;;;;;5005115;28;20057;-56
2023/04/02 04:04:07;;;;;;;1.75;0.80;;;;;;;;;;5006973;28;20057;-57
2023/04/02 04:06:35;;;;;;;0.90;0.90;;;;;;;;;;4988972;28;20041;-57
2023/04/02 04:09:04;;;;;;;1.23;0.93;;;;;;;;;;4999043;28;20029;-57
2023/04/02 04:11:34;;;;;;;2.35;0.98;;;;;;;;;;5007359;28;20041;-57
2023/04/02 04:14:18;;;;;;;1.33;1.00;;;;;;;;;;5001710;28;20038;-56
2023/04/02 04:16:58;;;;;;;1.80;1.10;;;;;;;;;;5006107;28;20038;-57
2023/04/02 04:19:48;;;;;;;2.03;0.98;;;;;;;;;;5002336;28;20056;-58
2023/04/02 04:22:29;;;;;;;1.08;0.98;;;;;;;;;;5007757;28;20026;-57
2023/04/02 04:25:01;;;;;;;1.15;0.95;;;;;;;;;;4991237;28;20046;-57
2023/04/02 04:27:53;;;;;;;1.17;1.00;;;;;;;;;;5006437;28;20044;-57
2023/04/02 04:30:33;;;;;;;1.83;1.00;;;;;;;;;;5002893;28;20037;-58
2023/04/02 04:33:24;;;;;;;1.42;0.98;;;;;;;;;;5006196;28;20034;-58
2023/04/02 04:36:00;;;;;;;1.20;1.10;;;;;;;;;;5007149;28;20419;-57
2023/04/02 04:38:38;;;;;;;1.00;0.90;;;;;;;;;;5008146;28;20033;-57
2023/04/02 04:41:13;;;;;;;1.15;1.00;;;;;;;;;;5006128;28;20041;-57
2023/04/02 04:44:04;;;;;;;1.85;1.20;;;;;;;;;;5010219;28;20034;-58
2023/04/02 04:46:39;;;;;;;1.25;1.05;;;;;;;;;;5009027;28;20045;-58
2023/04/02 04:49:43;;;;;;;1.55;0.93;;;;;;;;;;5006505;28;20040;-57
2023/04/02 04:52:19;;;;;;;1.67;1.00;;;;;;;;;;5004545;28;20042;-57
2023/04/02 04:54:47;;;;;;;1.52;1.13;;;;;;;;;;5007498;28;20050;-58
2023/04/02 04:57:28;;;;;;;1.23;0.98;;;;;;;;;;5009420;28;20038;-57
2023/04/02 05:00:05;;;;;;;1.80;0.95;;;;;;;;;;5010147;28;20046;-58
2023/04/02 05:02:39;;;;;;;3.03;1.02;;;;;;;;;;5037056;28;20048;-58
2023/04/02 05:05:18;;;;;;;4.32;1.20;;;;;;;;;;5010442;28;20058;-58
2023/04/02 05:07:51;;;;;;;1.65;1.02;;;;;;;;;;5007760;28;20042;-56
2023/04/02 05:10:41;;;;;;;1.80;1.13;;;;;;;;;;5024067;28;20045;-58
2023/04/02 05:13:19;;;;;;;;;;;;;;;;;;5008257;28;20041;-58
2023/04/02 05:16:08;;;;;;;2.35;1.05;;;;;;;;;;5008687;28;19936;-57
2023/04/02 05:18:46;;;;;;;1.23;1.13;;;;;;;;;;5010064;28;20053;-56
2023/04/02 05:21:32;;;;;;;2.17;1.25;;;;;;;;;;5006881;28;20037;-57
2023/04/02 05:24:28;;;;;;;1.23;1.13;;;;;;;;;;5009890;28;20038;-56
2023/04/02 05:27:01;;;;;;;3.97;1.20;;;;;;;;;;5039217;28;20056;-57
2023/04/02 05:29:35;;;;;;;1.73;1.08;;;;;;;;;;5009402;28;20046;-57
2023/04/02 05:32:27;;;;;;;2.22;1.00;;;;;;;;;;5003049;28;20041;-58
2023/04/02 05:34:55;;;;;;;2.40;1.20;;;;;;;;;;5008247;28;20512;-57
2023/04/02 05:37:27;;;;;;;1.88;1.08;;;;;;;;;;5010086;28;20053;-57
2023/04/02 05:40:05;;;;;;;1.90;1.48;;;;;;;;;;5006233;28;20060;-56
2023/04/02 05:42:36;;;;;;;1.17;1.05;;;;;;;;;;5036012;28;20033;-57
2023/04/02 05:45:34;;;;;;;1.52;1.10;;;;;;;;;;5009114;28;20037;-56
2023/04/02 05:48:24;;;;;;;1.23;1.00;;;;;;;;;;5035731;28;20045;-57
2023/04/02 05:50:54;;;;;;;1.88;1.15;;;;;;;;;;5006379;28;20046;-57
2023/04/02 05:53:35;;;;;;;1.42;1.13;;;;;;;;;;5005939;28;20034;-56
2023/04/02 05:56:21;;;;;;;2.10;1.38;;;;;;;;;;5008542;28;20064;-60
2023/04/02 05:58:54;;;;;;;1.33;1.02;;;;;;;;;;5006898;28;20061;-57
2023/04/02 06:01:52;;;;;;;3.88;1.20;;;;;;;;;;5009866;28;20037;-57
2023/04/02 06:04:55;;;;;;;0.82;0.82;;;;;;;;;;5008525;28;20037;-56
2023/04/02 06:07:31;;;;;;;1.45;0.90;;;;;;;;;;5008028;28;20490;-58
2023/04/02 06:10:13;;;;;;;3.45;1.63;;;;;;;;;;5007140;28;20045;-58
2023/04/02 06:12:45;;;;;;;4.57;1.88;;;;;;;;;;5006060;28;20519;-57
2023/04/02 06:15:15;;;;;;;2.00;1.35;;;;;;;;;;5006937;28;20045;-57
2023/04/02 06:17:58;;;;;;;3.03;1.80;;;;;;;;;;5004627;28;20037;-57
2023/04/02 06:20:27;;;;;;;5.93;2.60;;;;;;;;;;5003768;28;20044;-58
2023/04/02 06:22:58;;;;;;;4.70;2.00;;;;;;;;;;5010503;28;20038;-57
2023/04/02 06:25:32;;;;;;;1.70;1.60;;;;;;;;;;5008536;28;20403;-57
2023/04/02 06:28:03;;;;;;;4.30;2.20;;;;;;;;;;5004774;28;20092;-57
2023/04/02 06:30:36;;;;;;;3.53;2.08;;;;;;;;;;5007725;28;20046;-58
2023/04/02 06:33:04;;;;;;;3.63;2.65;;;;;;;;;;5008159;28;20030;-56
2023/04/02 06:35:35;;;;;;;4.55;1.80;;;;;;;;;;5038268;28;20034;-57
2023/04/02 06:38:04;;;;;;;;;;;;;;;;;;5009669;28;20526;-57
2023/04/02 06:40:40;;;;;;;7.63;4.05;;;;;;;;;;5006870;28;19913;-57
2023/04/02 06:43:32;;;;;;;2.10;1.57;;;;;;;;;;5033949;28;20038;-58
2023/04/02 06:46:31;;;;;;;2.75;1.40;;;;;;;;;;5016259;28;20030;-57
2023/04/02 06:49:31;;;;;;;1.70;1.60;;;;;;;;;;5005032;28;20542;-56
2023/04/02 06:52:03;;;;;;;3.58;1.58;;;;;;;;;;5006100;28;20042;-57
2023/04/02 06:54:30;;;;;;;2.85;1.38;;;;;;;;;;5007758;28;20045;-57
2023/04/02 06:57:03;;;;;;;2.47;1.80;;;;;;;;;;5005960;28;20385;-58
2023/04/02 06:59:33;;;;;;;3.03;1.50;;;;;;;;;;5007026;28;20496;-58
2023/04/02 07:02:19;;;;;;;1.15;1.00;;;;;;;;;;5009146;28;20097;-58
2023/04/02 07:04:45;;;;;;;1.27;1.10;;;;;;;;;;5007265;28;20034;-57
2023/04/02 07:07:12;;;;;;;1.20;1.10;;;;;;;;;;5006416;28;20034;-57
2023/04/02 07:09:41;;;;;;;1.15;1.00;;;;;;;;;;5007754;28;20041;-57
2023/04/02 07:12:12;;;;;;;0.93;0.93;;;;;;;;;;5006774;28;20040;-58
2023/04/02 07:14:39;;;;;;;3.08;1.20;;;;;;;;;;5005074;28;20038;-57
2023/04/02 07:17:06;;;;;;;1.52;1.20;;;;;;;;;;5008520;28;20044;-58
2023/04/02 07:19:32;;;;;;;1.92;1.30;;;;;;;;;;5008292;28;20042;-58
2023/04/02 07:21:59;;;;;;;1.48;1.23;;;;;;;;;;5007879;28;20423;-58
2023/04/02 07:24:31;;;;;;;5.88;3.88;;;;;;;;;;5005396;28;20060;-57
2023/04/02 07:26:57;;;;;;;3.22;2.28;;;;;;;;;;5006530;28;20045;-59
2023/04/02 07:29:23;;;;;;;2.95;2.50;;;;;;;;;;5008411;28;20053;-58
2023/04/02 07:31:51;;;;;;;5.10;1.83;;;;;;;;;;5009488;28;20038;-57
2023/04/02 07:34:17;;;;;;;1.50;1.30;;;;;;;;;;5009403;28;20499;-57
2023/04/02 07:36:43;;;;;;;3.65;1.20;;;;;;;;;;5008864;28;20410;-57
2023/04/02 07:39:09;;;;;;;1.58;1.00;;;;;;;;;;5006873;28;20521;-59
2023/04/02 07:41:59;;;;;;;3.03;1.80;;;;;;;;;;5006889;28;20038;-58
2023/04/02 07:44:26;;;;;;;4.82;1.30;;;;;;;;;;5003864;28;20041;-57
2023/04/02 07:46:53;;;;;;;3.30;1.65;;;;;;;;;;5007307;28;20041;-57
2023/04/02 07:49:20;;;;;;;5.93;2.35;;;;;;;;;;5008934;28;20042;-57
2023/04/02 07:51:46;;;;;;;5.55;2.72;;;;;;;;;;5009479;28;20033;-58
2023/04/02 07:54:12;;;;;;;3.08;1.90;;;;;;;;;;5009135;28;20034;-58
2023/04/02 07:56:38;;;;;;;3.08;1.70;;;;;;;;;;5007916;28;20413;-57
2023/04/02 07:59:05;;;;;;;2.75;1.50;;;;;;;;;;5005718;28;20042;-57
2023/04/02 08:01:34;;;;;;;3.70;1.80;;;;;;;;;;5006048;28;20034;-57
2023/04/02 08:04:03;;;;;;;4.68;2.63;;;;;;;;;;5005478;28;20042;-57
2023/04/02 08:06:29;;;;;;;3.03;1.92;;;;;;;;;;5007924;28;20029;-58
2023/04/02 08:08:56;;;;;;;1.55;1.40;;;;;;;;;;5009638;28;20034;-58
2023/04/02 08:11:23;;;;;;;1.98;1.75;;;;;;;;;;5010419;28;20038;-58
2023/04/02 08:13:49;;;;;;;2.42;1.23;;;;;;;;;;5002000;28;20045;-56
2023/04/02 08:16:15;;;;;;;1.30;1.20;;;;;;;;;;5008428;28;20072;-57
2023/04/02 08:18:41;;;;;;;1.20;1.00;;;;;;;;;;5010768;28;20046;-57
2023/04/02 08:21:09;;;;;;;2.03;1.40;;;;;;;;;;5011407;28;20049;-57
2023/04/02 08:23:36;;;;;;;4.72;2.40;;;;;;;;;;5009910;28;20054;-57
2023/04/02 08:26:03;;;;;;;2.17;1.75;;;;;;;;;;5011885;28;20496;-58
2023/04/02 08:28:29;;;;;;;2.55;1.55;;;;;;;;;;5012190;28;20030;-59
2023/04/02 08:30:55;;;;;;;1.90;1.60;;;;;;;;;;5012090;28;20522;-58
2023/04/02 08:33:21;;;;;;;1.55;1.45;;;;;;;;;;5012111;28;20054;-57
2023/04/02 08:35:49;;;;;;;3.22;1.90;;;;;;;;;;5010781;28;20038;-59
2023/04/02 08:38:18;;;;;;;1.70;1.50;;;;;;;;;;5012013;28;20504;-58
2023/04/02 08:40:47;;;;;;;1.87;1.27;;;;;;;;;;5011005;28;20038;-58
2023/04/02 08:43:29;;;;;;;1.85;1.40;;;;;;;;;;5010116;28;20053;-58
2023/04/02 08:46:21;;;;;;;4.05;2.70;;;;;;;;;;5010905;28;20523;-56
2023/04/02 08:48:56;;;;;;;8.50;3.50;;;;;;;;;;5011924;28;20088;-57
2023/04/02 08:51:29;;;;;;;4.00;2.60;;;;;;;;;;5011564;28;20407;-58
2023/04/02 08:54:02;;;;;;;6.03;3.20;;;;;;;;;;5012636;28;20037;-57
2023/04/02 08:56:35;;;;;;;3.70;2.40;;;;;;;;;;5010450;28;20030;-57
2023/04/02 08:59:14;;;;;;;3.72;2.40;;;;;;;;;;5009994;28;20038;-57
2023/04/02 09:01:46;;;;;;;4.78;2.78;;;;;;;;;;5007360;28;20038;-58
2023/04/02 09:04:20;;;;;;;4.78;2.78;;;;;;;;;;5009402;28;20052;-58
2023/04/02 09:06:51;;;;;;;5.03;1.83;;;;;;;;;;5011882;28;20514;-58
2023/04/02 09:09:18;;;;;;;3.60;1.98;;;;;;;;;;5010194;28;20042;-59
2023/04/02 09:11:53;;;;;;;8.00;4.15;;;;;;;;;;5010426;28;20510;-57
2023/04/02 09:14:26;;;;;;;11.30;4.43;;;;;;;;;;5010430;28;20050;-57
2023/04/02 09:16:55;;;;;;;13.82;5.30;;;;;;;;;;5008400;28;20042;-57
2023/04/02 09:19:31;;;;;;;7.88;3.10;;;;;;;;;;5005385;28;20500;-58
2023/04/02 09:22:23;;;;;;;5.60;3.40;;;;;;;;;;5009368;28;20042;-58
2023/04/02 09:24:54;;;;;;;6.00;3.13;;;;;;;;;;5034052;28;20038;-58
2023/04/02 09:27:23;;;;;;;2.20;1.70;;;;;;;;;;5012396;28;20032;-58
2023/04/02 09:30:02;;;;;;;3.45;2.22;;;;;;;;;;5010662;28;20030;-58
2023/04/02 09:32:47;;;;;;;3.92;2.38;;;;;;;;;;5007015;28;20060;-58
2023/04/02 09:35:17;;;;;;;3.78;2.30;;;;;;;;;;5007801;28;20036;-59
2023/04/02 09:37:44;;;;;;;4.95;2.28;;;;;;;;;;5009612;28;20495;-59
2023/04/02 09:40:18;;;;;;;4.70;2.03;;;;;;;;;;5009440;28;20418;-57
2023/04/02 09:42:45;;;;;;;2.97;1.80;;;;;;;;;;5007554;28;20034;-57
2023/04/02 09:45:22;;;;;;;1.98;1.48;;;;;;;;;;5009570;28;20705;-57
2023/04/02 09:47:51;;;;;;;2.00;1.80;;;;;;;;;;5007451;28;20381;-58
2023/04/02 09:50:20;;;;;;;4.40;2.63;;;;;;;;;;5010393;28;20030;-59
2023/04/02 09:52:49;;;;;;;3.72;2.83;;;;;;;;;;5009560;28;20623;-57
2023/04/02 09:55:17;;;;;;;3.22;2.90;;;;;;;;;;5010503;28;20034;-59
2023/04/02 09:57:45;;;;;;;3.05;2.08;;;;;;;;;;5009904;28;20037;-57
2023/04/02 10:00:17;;;;;;;2.60;1.80;;;;;;;;;;5008448;28;20049;-57
2023/04/02 10:02:45;;;;;;;2.50;1.20;;;;;;;;;;5008752;28;20038;-58
2023/04/02 10:05:19;;;;;;;2.38;1.60;;;;;;;;;;5009229;28;20531;-58
2023/04/02 10:07:47;;;;;;;4.05;1.55;;;;;;;;;;5010365;28;20543;-56
2023/04/02 10:10:36;;;;;;;1.38;1.27;;;;;;;;;;5006877;28;20039;-58
2023/04/02 10:13:26;;;;;;;1.35;1.25;;;;;;;;;;5010523;28;20045;-58
2023/04/02 10:16:01;;;;;;;2.05;1.40;;;;;;;;;;5007150;28;20050;-58
2023/04/02 10:19:03;;;;;;;1.95;1.27;;;;;;;;;;5009891;28;20388;-57
2023/04/02 10:21:37;;;;;;;1.60;1.30;;;;;;;;;;5010106;28;20049;-58
2023/04/02 10:24:17;;;;;;;1.25;0.90;;;;;;;;;;5008803;28;20030;-59
2023/04/02 10:26:46;;;;;;;2.78;1.00;;;;;;;;;;5005983;28;20038;-58
2023/04/02 10:29:36;;;;;;;15.20;5.38;;;;;;;;;;5009197;28;20060;-58
2023/04/02 10:32:25;;;;;;;9.90;4.10;;;;;;;;;;5007955;28;20038;-57
2023/04/02 10:35:06;;;;;;;3.00;1.50;;;;;;;;;;5010328;28;20048;-58
2023/04/02 10:37:44;;;;;;;2.38;1.35;;;;;;;;;;5007160;28;20042;-58
2023/04/02 10:40:31;;;;;;;1.13;0.90;;;;;;;;;;5009134;28;20431;-58
2023/04/02 10:43:25;;;;;;;1.00;0.90;;;;;;;;;;5007127;28;20057;-59
2023/04/02 10:46:12;;;;;;;1.65;1.20;;;;;;;;;;5009540;28;20033;-59
2023/04/02 10:48:42;;;;;;;2.13;1.20;;;;;;;;;;5006928;28;20033;-58
2023/04/02 10:51:40;;;;;;;2.53;0.82;;;;;;;;;;5007943;28;20068;-58
2023/04/02 10:54:22;;;;;;;0.82;0.82;;;;;;;;;;5004616;28;20041;-58
2023/04/02 10:56:51;;;;;;;2.20;2.00;;;;;;;;;;5008404;28;20034;-57
2023/04/02 10:59:28;;;;;;;1.85;1.63;;;;;;;;;;5005188;28;20516;-59
2023/04/02 11:01:58;;;;;;;1.73;1.10;;;;;;;;;;5007580;28;20049;-59
2023/04/02 11:04:30;;;;;;;1.67;1.30;;;;;;;;;;5007237;28;20639;-59
2023/04/02 11:06:59;;;;;;;3.85;2.40;;;;;;;;;;5007922;28;20119;-59
2023/04/02 11:09:28;;;;;;;5.82;2.63;;;;;;;;;;5008632;28;20045;-59
2023/04/02 11:11:57;;;;;;;1.42;1.20;;;;;;;;;;5009197;28;20060;-59
2023/04/02 11:14:28;;;;;;;1.42;0.90;;;;;;;;;;5007068;28;20056;-58
2023/04/02 11:16:57;;;;;;;2.65;1.35;;;;;;;;;;5006608;28;20044;-59
2023/04/02 11:19:25;;;;;;;;;;;;;;;;;;5008046;28;20371;-59
2023/04/02 11:22:01;;;;;;;0.88;0.80;;;;;;;;;;5009764;28;19918;-58
2023/04/02 11:24:31;;;;;;;2.53;1.50;;;;;;;;;;5008625;28;20029;-58
2023/04/02 11:27:10;;;;;;;5.00;3.75;;;;;;;;;;5008508;28;20498;-59
2023/04/02 11:29:48;;;;;;;2.20;1.98;;;;;;;;;;5007057;28;20392;-59
2023/04/02 11:32:24;;;;;;;1.00;0.90;;;;;;;;;;5006094;28;20033;-57
2023/04/02 11:34:50;;;;;;;0.82;0.70;;;;;;;;;;5005687;28;20136;-58
2023/04/02 11:37:39;;;;;;;0.95;0.80;;;;;;;;;;5006894;28;20042;-59
2023/04/02 11:40:14;;;;;;;1.73;1.27;;;;;;;;;;5005095;28;20117;-59
2023/04/02 11:42:44;;;;;;;2.90;1.00;;;;;;;;;;5006917;28;20038;-58
2023/04/02 11:45:20;;;;;;;1.45;1.20;;;;;;;;;;5013155;28;20030;-57
2023/04/02 11:47:58;;;;;;;4.88;2.38;;;;;;;;;;5010878;28;20404;-59
2023/04/02 11:50:28;;;;;;;6.28;1.52;;;;;;;;;;5011123;28;20492;-59
2023/04/02 11:53:16;;;;;;;1.92;1.33;;;;;;;;;;5013736;28;20048;-59
2023/04/02 11:55:45;;;;;;;1.67;1.08;;;;;;;;;;5014252;28;20046;-58
2023/04/02 11:58:41;;;;;;;2.20;0.90;;;;;;;;;;5010993;28;20037;-58
2023/04/02 12:01:48;;;;;;;1.00;0.90;;;;;;;;;;5006912;28;20049;-58
2023/04/02 12:04:23;;;;;;;1.25;0.88;;;;;;;;;;5011589;28;20034;-60
2023/04/02 12:07:33;;;;;;;3.88;2.25;;;;;;;;;;5015878;28;20038;-60
2023/04/02 12:10:04;;;;;;;2.35;1.52;;;;;;;;;;5013012;28;20048;-58
2023/04/02 12:12:36;;;;;;;2.58;1.70;;;;;;;;;;5013907;28;20045;-58
2023/04/02 12:15:27;;;;;;;2.33;1.50;;;;;;;;;;5013181;28;20053;-57
2023/04/02 12:18:10;;;;;;;2.08;1.63;;;;;;;;;;5012226;28;20050;-58
2023/04/02 12:20:37;;;;;;;2.72;1.70;;;;;;;;;;5013129;28;20251;-58
2023/04/02 12:23:03;;;;;;;3.97;1.85;;;;;;;;;;5013654;28;20025;-58
2023/04/02 12:25:31;;;;;;;2.83;1.77;;;;;;;;;;5015453;28;20037;-58
2023/04/02 12:28:13;;;;;;;3.40;1.67;;;;;;;;;;5015390;28;20046;-58
2023/04/02 12:30:40;;;;;;;3.58;1.90;;;;;;;;;;5014442;28;20042;-58
2023/04/02 12:33:26;;;;;;;2.35;1.67;;;;;;;;;;5014966;28;20041;-58
2023/04/02 12:35:57;;;;;;;3.28;1.80;;;;;;;;;;5014560;28;20034;-58
2023/04/02 12:38:30;;;;;;;2.47;1.52;;;;;;;;;;5014811;28;20037;-58
2023/04/02 12:41:02;;;;;;;3.28;1.35;;;;;;;;;;5013015;28;20050;-58
2023/04/02 12:43:31;;;;;;;1.85;1.52;;;;;;;;;;5013815;28;20045;-59
2023/04/02 12:46:03;;;;;;;2.58;1.80;;;;;;;;;;5015229;28;20476;-58
2023/04/02 12:48:30;;;;;;;3.53;1.52;;;;;;;;;;5014965;28;20052;-58
2023/04/02 12:50:57;;;;;;;3.42;1.88;;;;;;;;;;5014360;28;20034;-59
2023/04/02 12:53:38;;;;;;;2.22;1.60;;;;;;;;;;5015390;28;20045;-58
2023/04/02 12:56:06;;;;;;;3.38;1.77;;;;;;;;;;5008723;28;20041;-58
2023/04/02 12:58:36;;;;;;;5.07;2.78;;;;;;;;;;5010066;28;20504;-59
2023/04/02 13:01:09;;;;;;;12.82;6.20;;;;;;;;;;5008487;28;20042;-58
2023/04/02 13:03:36;;;;;;;6.20;2.80;;;;;;;;;;5005402;28;20050;-58
2023/04/02 13:06:03;;;;;;;6.85;2.28;;;;;;;;;;5007477;28;20041;-58
2023/04/02 13:08:42;;;;;;;3.30;1.90;;;;;;;;;;5007280;28;20411;-58
2023/04/02 13:11:08;;;;;;;4.38;2.10;;;;;;;;;;5007784;28;20041;-58
2023/04/02 13:13:37;;;;;;;20.38;9.65;;;;;;;;;;5008245;28;20053;-58
2023/04/02 13:16:18;;;;;;;8.88;5.50;;;;;;;;;;5010867;28;20045;-59
2023/04/02 13:18:46;;;;;;;15.15;6.55;;;;;;;;;;5009569;28;20042;-58
2023/04/02 13:21:15;;;;;;;6.75;4.20;;;;;;;;;;5008415;28;20128;-59
2023/04/02 13:23:43;;;;;;;8.27;4.25;;;;;;;;;;5008714;28;20057;-58
2023/04/02 13:26:13;;;;;;;5.03;2.90;;;;;;;;;;5011447;28;20030;-58
2023/04/02 13:28:39;;;;;;;5.03;2.42;;;;;;;;;;5011065;28;20053;-58
2023/04/02 13:31:13;;;;;;;9.55;2.85;;;;;;;;;;5010898;28;20499;-58
2023/04/02 13:33:39;;;;;;;7.78;2.67;;;;;;;;;;5009662;28;20423;-60
2023/04/02 13:36:08;;;;;;;7.40;2.30;;;;;;;;;;5010930;28;20500;-59
2023/04/02 13:38:34;;;;;;;10.60;2.38;;;;;;;;;;5011339;28;20052;-60
2023/04/02 13:41:00;;;;;;;4.20;2.10;;;;;;;;;;5010557;28;20493;-59
2023/04/02 13:43:27;;;;;;;4.95;1.80;;;;;;;;;;5010709;28;20057;-59
2023/04/02 13:46:04;;;;;;;3.15;1.60;;;;;;;;;;5010950;28;20040;-59
2023/04/02 13:48:30;;;;;;;2.60;1.60;;;;;;;;;;5007394;28;20030;-58
2023/04/02 13:50:57;;;;;;;2.00;1.40;;;;;;;;;;5010303;28;20756;-60
2023/04/02 13:53:29;;;;;;;1.88;1.17;;;;;;;;;;5010899;28;20403;-58
2023/04/02 13:55:55;;;;;;;2.83;1.20;;;;;;;;;;5009069;28;20050;-58
2023/04/02 13:58:21;;;;;;;1.70;0.90;;;;;;;;;;5010365;28;20041;-59
2023/04/02 14:00:48;;;;;;;1.95;1.40;;;;;;;;;;5009347;28;20050;-59
2023/04/02 14:03:21;;;;;;;3.40;1.58;;;;;;;;;;5008019;28;20053;-59
2023/04/02 14:06:09;;;;;;;3.63;1.50;;;;;;;;;;5007322;28;20046;-59
2023/04/02 14:09:17;;;;;;;3.70;1.42;;;;;;;;;;5008893;28;20037;-58
2023/04/02 14:11:49;;;;;;;3.78;1.60;;;;;;;;;;4970855;28;20034;-58
2023/04/02 14:14:24;;;;;;;2.88;1.50;;;;;;;;;;4989773;28;20042;-58
2023/04/02 14:17:17;;;;;;;6.45;1.40;;;;;;;;;;4999943;28;20049;-58
2023/04/02 14:19:58;;;;;;;3.03;1.55;;;;;;;;;;5007393;28;20105;-59
2023/04/02 14:22:57;;;;;;;2.63;1.60;;;;;;;;;;5010524;28;20048;-59
2023/04/02 14:25:30;;;;;;;2.38;1.67;;;;;;;;;;5008653;28;20041;-58
2023/04/02 14:28:26;;;;;;;3.38;1.83;;;;;;;;;;5009105;28;20052;-58
2023/04/02 14:31:17;;;;;;;4.47;2.33;;;;;;;;;;5008088;28;20054;-58
2023/04/02 14:33:49;;;;;;;5.88;2.55;;;;;;;;;;5001159;28;20038;-58
2023/04/02 14:36:18;;;;;;;4.28;2.30;;;;;;;;;;5005179;28;20050;-58
2023/04/02 14:38:53;;;;;;;3.92;1.80;;;;;;;;;;5007687;28;20036;-58
2023/04/02 14:41:36;;;;;;;2.78;1.80;;;;;;;;;;5007112;28;20137;-58
2023/04/02 14:44:06;;;;;;;5.55;2.30;;;;;;;;;;5002966;28;20385;-58
2023/04/02 14:46:35;;;;;;;4.90;1.83;;;;;;;;;;5010422;28;20045;-57
2023/04/02 14:49:08;;;;;;;3.33;1.67;;;;;;;;;;5008440;28;20504;-60
2023/04/02 14:51:44;;;;;;;4.78;2.40;;;;;;;;;;5009989;28;20045;-57
2023/04/02 14:54:25;;;;;;;3.03;1.70;;;;;;;;;;5007906;28;20492;-58
2023/04/02 14:57:02;;;;;;;2.15;1.67;;;;;;;;;;5007201;28;20049;-59
2023/04/02 14:59:51;;;;;;;3.35;1.83;;;;;;;;;;5005310;28;20037;-59
2023/04/02 15:02:43;;;;;;;12.18;6.07;;;;;;;;;;5003074;28;20045;-59
2023/04/02 15:05:39;;;;;;;4.30;2.35;;;;;;;;;;5005591;28;20047;-58
2023/04/02 15:08:05;;;;;;;2.83;1.80;;;;;;;;;;5009459;28;20403;-58
2023/04/02 15:10:38;;;;;;;3.58;2.20;;;;;;;;;;5007961;28;20037;-58
2023/04/02 15:13:18;;;;;;;4.25;1.80;;;;;;;;;;5023532;28;20488;-58
2023/04/02 15:16:02;;;;;;;3.67;2.38;;;;;;;;;;5006778;28;20068;-58
2023/04/02 15:18:28;;;;;;;2.90;1.52;;;;;;;;;;5005414;28;20022;-59
2023/04/02 15:21:28;;;;;;;5.13;2.05;;;;;;;;;;5007585;28;20046;-58
2023/04/02 15:23:54;;;;;;;;;;;;;;;;;;5009727;28;20061;-58
2023/04/02 15:26:48;;;;;;;15.73;5.57;;;;;;;;;;5007612;28;19913;-58
2023/04/02 15:29:26;;;;;;;16.15;5.65;;;;;;;;;;5004411;28;20042;-58
2023/04/02 15:32:18;;;;;;;15.00;6.03;;;;;;;;;;5008925;28;20061;-59
2023/04/02 15:35:17;;;;;;;11.57;4.35;;;;;;;;;;5003374;28;20069;-59